< < Back
Terminal Aerodrome Forecast


Current Version              Previous Versions:   1  2  3  4  5  6  7  8  9  

Terminal Aerodrome Forecast

094
FTUS42 KTAE 221720
TAFDHN
TAF
KDHN 221720Z 2218/2318 03009KT P6SM SCT250
     FM230500 05003KT P6SM SCT150
     FM231300 08006KT P6SM FEW025 SCT250
     FM231700 10009KT P6SM FEW040 SCT250=



Latest METAR

853
SAUS70 KWBC 230400 RRA
MTRDHN
METAR KDHN 230353Z AUTO 03005KT 10SM CLR 18/13 A3024 RMK AO2 SLP237
T01830133


USA.gov is the U.S. government's official web portal to all federal, state and local government web resources and services.